sensor_id;sensor_type;location;lat;lon;timestamp;temperature;humidity
11894;DHT22;6006;49.696;8.662;2022-09-09T00:00:20;14.20;99.90
11894;DHT22;6006;49.696;8.662;2022-09-09T00:02:57;14.20;99.90
11894;DHT22;6006;49.696;8.662;2022-09-09T00:05:31;14.20;99.90
11894;DHT22;6006;49.696;8.662;2022-09-09T00:08:02;14.20;99.90
11894;DHT22;6006;49.696;8.662;2022-09-09T00:10:34;14.30;99.90
11894;DHT22;6006;49.696;8.662;2022-09-09T00:13:14;14.30;99.90
11894;DHT22;6006;49.696;8.662;2022-09-09T00:15:48;14.40;99.90
11894;DHT22;6006;49.696;8.662;2022-09-09T00:18:23;14.40;99.90
11894;DHT22;6006;49.696;8.662;2022-09-09T00:20:57;14.50;99.90
11894;DHT22;6006;49.696;8.662;2022-09-09T00:23:28;14.50;99.90
11894;DHT22;6006;49.696;8.662;2022-09-09T00:26:04;14.50;99.90
11894;DHT22;6006;49.696;8.662;2022-09-09T00:28:39;14.60;99.90
11894;DHT22;6006;49.696;8.662;2022-09-09T00:31:13;14.60;99.90
11894;DHT22;6006;49.696;8.662;2022-09-09T00:33:44;14.60;99.90
11894;DHT22;6006;49.696;8.662;2022-09-09T00:36:14;14.70;99.90
11894;DHT22;6006;49.696;8.662;2022-09-09T00:38:45;14.70;99.90
11894;DHT22;6006;49.696;8.662;2022-09-09T00:41:19;14.70;99.90
11894;DHT22;6006;49.696;8.662;2022-09-09T00:43:57;14.80;99.90
11894;DHT22;6006;49.696;8.662;2022-09-09T00:49:20;14.90;99.90
11894;DHT22;6006;49.696;8.662;2022-09-09T00:51:58;14.90;99.90
11894;DHT22;6006;49.696;8.662;2022-09-09T00:54:36;14.90;99.90
11894;DHT22;6006;49.696;8.662;2022-09-09T00:57:17;14.90;99.90
11894;DHT22;6006;49.696;8.662;2022-09-09T00:59:52;15.00;99.90
11894;DHT22;6006;49.696;8.662;2022-09-09T01:02:27;15.00;99.90
11894;DHT22;6006;49.696;8.662;2022-09-09T01:05:07;15.00;99.90
11894;DHT22;6006;49.696;8.662;2022-09-09T01:07:37;15.10;99.90
11894;DHT22;6006;49.696;8.662;2022-09-09T01:10:08;15.10;99.90
11894;DHT22;6006;49.696;8.662;2022-09-09T01:12:41;15.10;99.90
11894;DHT22;6006;49.696;8.662;2022-09-09T01:15:13;15.10;99.90
11894;DHT22;6006;49.696;8.662;2022-09-09T01:17:54;15.20;99.90
11894;DHT22;6006;49.696;8.662;2022-09-09T01:20:26;15.20;99.90
11894;DHT22;6006;49.696;8.662;2022-09-09T01:23:04;15.30;99.90
11894;DHT22;6006;49.696;8.662;2022-09-09T01:28:48;15.30;99.90
11894;DHT22;6006;49.696;8.662;2022-09-09T01:31:19;15.40;99.90
11894;DHT22;6006;49.696;8.662;2022-09-09T01:33:47;15.40;99.90
11894;DHT22;6006;49.696;8.662;2022-09-09T01:36:21;15.40;99.90
11894;DHT22;6006;49.696;8.662;2022-09-09T01:38:50;15.50;99.90
11894;DHT22;6006;49.696;8.662;2022-09-09T01:41:17;15.40;99.90
11894;DHT22;6006;49.696;8.662;2022-09-09T01:43:46;15.30;99.90
11894;DHT22;6006;49.696;8.662;2022-09-09T01:46:14;15.20;99.90
11894;DHT22;6006;49.696;8.662;2022-09-09T01:48:41;15.20;99.90
11894;DHT22;6006;49.696;8.662;2022-09-09T01:51:08;15.20;99.90
11894;DHT22;6006;49.696;8.662;2022-09-09T01:53:37;15.20;99.90
11894;DHT22;6006;49.696;8.662;2022-09-09T01:56:13;15.20;99.90
11894;DHT22;6006;49.696;8.662;2022-09-09T01:58:53;15.20;99.90
11894;DHT22;6006;49.696;8.662;2022-09-09T02:01:30;15.20;99.90
11894;DHT22;6006;49.696;8.662;2022-09-09T02:04:03;15.20;99.90
11894;DHT22;6006;49.696;8.662;2022-09-09T02:06:35;15.20;99.90
11894;DHT22;6006;49.696;8.662;2022-09-09T02:09:05;15.40;99.90
11894;DHT22;6006;49.696;8.662;2022-09-09T02:11:33;15.40;99.90
11894;DHT22;6006;49.696;8.662;2022-09-09T02:14:05;15.40;99.90
11894;DHT22;6006;49.696;8.662;2022-09-09T02:16:37;15.40;99.90
11894;DHT22;6006;49.696;8.662;2022-09-09T02:19:09;15.50;99.90
11894;DHT22;6006;49.696;8.662;2022-09-09T02:21:40;15.60;99.90
11894;DHT22;6006;49.696;8.662;2022-09-09T02:24:09;15.60;99.90
11894;DHT22;6006;49.696;8.662;2022-09-09T02:26:40;15.60;99.90
11894;DHT22;6006;49.696;8.662;2022-09-09T02:29:13;15.60;99.90
11894;DHT22;6006;49.696;8.662;2022-09-09T02:31:42;15.60;99.90
11894;DHT22;6006;49.696;8.662;2022-09-09T02:34:11;15.60;99.90
11894;DHT22;6006;49.696;8.662;2022-09-09T02:36:40;15.60;99.90
11894;DHT22;6006;49.696;8.662;2022-09-09T02:39:10;15.50;99.90
11894;DHT22;6006;49.696;8.662;2022-09-09T02:41:40;15.60;99.90
11894;DHT22;6006;49.696;8.662;2022-09-09T02:44:11;15.60;99.90
11894;DHT22;6006;49.696;8.662;2022-09-09T02:46:58;15.60;99.90
11894;DHT22;6006;49.696;8.662;2022-09-09T02:49:38;15.50;99.90
11894;DHT22;6006;49.696;8.662;2022-09-09T02:52:08;15.50;99.90
11894;DHT22;6006;49.696;8.662;2022-09-09T02:54:41;15.50;99.90
11894;DHT22;6006;49.696;8.662;2022-09-09T02:57:11;15.40;99.90
11894;DHT22;6006;49.696;8.662;2022-09-09T02:59:40;15.40;99.90
11894;DHT22;6006;49.696;8.662;2022-09-09T03:02:07;15.50;99.90
11894;DHT22;6006;49.696;8.662;2022-09-09T03:04:35;15.60;99.90
11894;DHT22;6006;49.696;8.662;2022-09-09T03:07:02;15.60;99.90
11894;DHT22;6006;49.696;8.662;2022-09-09T03:09:30;15.50;99.90
11894;DHT22;6006;49.696;8.662;2022-09-09T03:11:58;15.50;99.90
11894;DHT22;6006;49.696;8.662;2022-09-09T03:14:25;15.50;99.90
11894;DHT22;6006;49.696;8.662;2022-09-09T03:16:54;15.50;99.90
11894;DHT22;6006;49.696;8.662;2022-09-09T03:19:21;15.40;99.90
11894;DHT22;6006;49.696;8.662;2022-09-09T03:21:48;15.50;99.90
11894;DHT22;6006;49.696;8.662;2022-09-09T03:24:16;15.50;99.90
11894;DHT22;6006;49.696;8.662;2022-09-09T03:26:43;15.40;99.90
11894;DHT22;6006;49.696;8.662;2022-09-09T03:29:11;15.40;99.90
11894;DHT22;6006;49.696;8.662;2022-09-09T03:31:39;15.30;99.90
11894;DHT22;6006;49.696;8.662;2022-09-09T03:34:07;15.10;99.90
11894;DHT22;6006;49.696;8.662;2022-09-09T03:36:34;15.10;99.90
11894;DHT22;6006;49.696;8.662;2022-09-09T03:39:01;15.00;99.90
11894;DHT22;6006;49.696;8.662;2022-09-09T03:41:29;15.00;99.90
11894;DHT22;6006;49.696;8.662;2022-09-09T03:43:56;14.90;99.90
11894;DHT22;6006;49.696;8.662;2022-09-09T03:46:25;14.90;99.90
11894;DHT22;6006;49.696;8.662;2022-09-09T03:48:52;14.80;99.90
11894;DHT22;6006;49.696;8.662;2022-09-09T03:51:20;14.80;99.90
11894;DHT22;6006;49.696;8.662;2022-09-09T03:53:47;14.70;99.90
11894;DHT22;6006;49.696;8.662;2022-09-09T03:56:14;14.80;99.90
11894;DHT22;6006;49.696;8.662;2022-09-09T03:58:41;14.70;99.90
11894;DHT22;6006;49.696;8.662;2022-09-09T04:01:10;14.60;99.90
11894;DHT22;6006;49.696;8.662;2022-09-09T04:03:38;14.60;99.90
11894;DHT22;6006;49.696;8.662;2022-09-09T04:06:06;14.60;99.90
11894;DHT22;6006;49.696;8.662;2022-09-09T04:08:36;14.60;99.90
11894;DHT22;6006;49.696;8.662;2022-09-09T04:11:04;14.50;99.90
11894;DHT22;6006;49.696;8.662;2022-09-09T04:13:32;14.50;99.90
11894;DHT22;6006;49.696;8.662;2022-09-09T04:16:01;14.40;99.90
11894;DHT22;6006;49.696;8.662;2022-09-09T04:18:29;14.40;99.90
11894;DHT22;6006;49.696;8.662;2022-09-09T04:20:56;14.30;99.90
11894;DHT22;6006;49.696;8.662;2022-09-09T04:23:24;14.30;99.90
11894;DHT22;6006;49.696;8.662;2022-09-09T04:25:54;14.20;99.90
11894;DHT22;6006;49.696;8.662;2022-09-09T04:28:23;14.30;99.90
11894;DHT22;6006;49.696;8.662;2022-09-09T04:30:51;14.60;99.90
11894;DHT22;6006;49.696;8.662;2022-09-09T04:33:18;14.60;99.90
11894;DHT22;6006;49.696;8.662;2022-09-09T04:35:46;14.70;99.90
11894;DHT22;6006;49.696;8.662;2022-09-09T04:38:14;14.80;99.90
11894;DHT22;6006;49.696;8.662;2022-09-09T04:40:43;14.70;99.90
11894;DHT22;6006;49.696;8.662;2022-09-09T04:43:11;14.90;99.90
11894;DHT22;6006;49.696;8.662;2022-09-09T04:45:38;14.90;99.90
11894;DHT22;6006;49.696;8.662;2022-09-09T04:48:06;14.80;99.90
11894;DHT22;6006;49.696;8.662;2022-09-09T04:50:33;14.80;99.90
11894;DHT22;6006;49.696;8.662;2022-09-09T04:53:00;14.80;99.90
11894;DHT22;6006;49.696;8.662;2022-09-09T04:55:27;14.80;99.90
11894;DHT22;6006;49.696;8.662;2022-09-09T04:57:55;14.80;99.90
11894;DHT22;6006;49.696;8.662;2022-09-09T05:00:24;14.80;99.90
11894;DHT22;6006;49.696;8.662;2022-09-09T05:02:51;14.80;99.90
11894;DHT22;6006;49.696;8.662;2022-09-09T05:05:18;14.80;99.90
11894;DHT22;6006;49.696;8.662;2022-09-09T05:07:45;14.80;99.90
11894;DHT22;6006;49.696;8.662;2022-09-09T05:10:12;14.90;99.90
11894;DHT22;6006;49.696;8.662;2022-09-09T05:12:42;15.10;99.90
11894;DHT22;6006;49.696;8.662;2022-09-09T05:15:09;15.10;99.90
11894;DHT22;6006;49.696;8.662;2022-09-09T05:17:38;15.30;99.90
11894;DHT22;6006;49.696;8.662;2022-09-09T05:20:06;15.30;99.90
11894;DHT22;6006;49.696;8.662;2022-09-09T05:22:33;15.30;99.90
11894;DHT22;6006;49.696;8.662;2022-09-09T05:25:00;15.40;99.90
11894;DHT22;6006;49.696;8.662;2022-09-09T05:27:27;15.40;99.90
11894;DHT22;6006;49.696;8.662;2022-09-09T05:29:53;15.40;99.90
11894;DHT22;6006;49.696;8.662;2022-09-09T05:32:20;15.40;99.90
11894;DHT22;6006;49.696;8.662;2022-09-09T05:34:48;15.40;99.90
11894;DHT22;6006;49.696;8.662;2022-09-09T05:37:16;15.40;99.90
11894;DHT22;6006;49.696;8.662;2022-09-09T05:39:43;15.50;99.90
11894;DHT22;6006;49.696;8.662;2022-09-09T05:42:10;15.50;99.90
11894;DHT22;6006;49.696;8.662;2022-09-09T05:44:37;15.50;99.90
11894;DHT22;6006;49.696;8.662;2022-09-09T05:47:04;15.60;99.90
11894;DHT22;6006;49.696;8.662;2022-09-09T05:49:33;15.60;99.90
11894;DHT22;6006;49.696;8.662;2022-09-09T05:52:01;15.70;99.90
11894;DHT22;6006;49.696;8.662;2022-09-09T05:54:29;15.70;99.90
11894;DHT22;6006;49.696;8.662;2022-09-09T05:56:56;15.80;99.90
11894;DHT22;6006;49.696;8.662;2022-09-09T05:59:24;15.80;99.90
11894;DHT22;6006;49.696;8.662;2022-09-09T06:01:51;15.80;99.90
11894;DHT22;6006;49.696;8.662;2022-09-09T06:04:18;15.90;99.90
11894;DHT22;6006;49.696;8.662;2022-09-09T06:06:50;15.90;99.90
11894;DHT22;6006;49.696;8.662;2022-09-09T06:09:18;16.00;99.90
11894;DHT22;6006;49.696;8.662;2022-09-09T06:11:45;16.10;99.90
11894;DHT22;6006;49.696;8.662;2022-09-09T06:14:12;16.10;99.90
11894;DHT22;6006;49.696;8.662;2022-09-09T06:16:39;16.20;99.90
11894;DHT22;6006;49.696;8.662;2022-09-09T06:19:07;16.30;99.90
11894;DHT22;6006;49.696;8.662;2022-09-09T06:21:36;16.20;99.90
11894;DHT22;6006;49.696;8.662;2022-09-09T06:24:03;16.40;99.90
11894;DHT22;6006;49.696;8.662;2022-09-09T06:26:33;16.40;99.90
11894;DHT22;6006;49.696;8.662;2022-09-09T06:29:01;16.40;99.90
11894;DHT22;6006;49.696;8.662;2022-09-09T06:31:30;16.40;99.90
11894;DHT22;6006;49.696;8.662;2022-09-09T06:33:59;16.40;99.90
11894;DHT22;6006;49.696;8.662;2022-09-09T06:36:28;16.30;99.90
11894;DHT22;6006;49.696;8.662;2022-09-09T06:38:55;16.20;99.90
11894;DHT22;6006;49.696;8.662;2022-09-09T06:41:24;16.30;99.90
11894;DHT22;6006;49.696;8.662;2022-09-09T06:43:53;16.40;99.90
11894;DHT22;6006;49.696;8.662;2022-09-09T06:46:22;16.50;99.90
11894;DHT22;6006;49.696;8.662;2022-09-09T06:48:52;16.40;99.90
11894;DHT22;6006;49.696;8.662;2022-09-09T06:51:22;16.50;99.90
11894;DHT22;6006;49.696;8.662;2022-09-09T06:53:51;16.70;99.90
11894;DHT22;6006;49.696;8.662;2022-09-09T06:56:21;17.10;99.90
11894;DHT22;6006;49.696;8.662;2022-09-09T06:58:49;17.20;99.90
11894;DHT22;6006;49.696;8.662;2022-09-09T07:01:19;17.20;99.90
11894;DHT22;6006;49.696;8.662;2022-09-09T07:03:48;17.00;99.90
11894;DHT22;6006;49.696;8.662;2022-09-09T07:06:17;17.10;99.90
11894;DHT22;6006;49.696;8.662;2022-09-09T07:08:48;17.30;99.90
11894;DHT22;6006;49.696;8.662;2022-09-09T07:11:16;17.40;99.90
11894;DHT22;6006;49.696;8.662;2022-09-09T07:13:42;17.70;99.90
11894;DHT22;6006;49.696;8.662;2022-09-09T07:16:11;17.50;99.90
11894;DHT22;6006;49.696;8.662;2022-09-09T07:18:40;17.40;99.90
11894;DHT22;6006;49.696;8.662;2022-09-09T07:21:08;17.40;99.90
11894;DHT22;6006;49.696;8.662;2022-09-09T07:23:35;17.40;99.90
11894;DHT22;6006;49.696;8.662;2022-09-09T07:26:02;17.30;99.90
11894;DHT22;6006;49.696;8.662;2022-09-09T07:28:29;17.50;99.90
11894;DHT22;6006;49.696;8.662;2022-09-09T07:30:57;17.60;99.90
11894;DHT22;6006;49.696;8.662;2022-09-09T07:33:25;17.50;99.90
11894;DHT22;6006;49.696;8.662;2022-09-09T07:35:53;17.40;99.90
11894;DHT22;6006;49.696;8.662;2022-09-09T07:38:20;17.40;99.90
11894;DHT22;6006;49.696;8.662;2022-09-09T07:40:48;17.40;99.90
11894;DHT22;6006;49.696;8.662;2022-09-09T07:43:15;17.40;99.90
11894;DHT22;6006;49.696;8.662;2022-09-09T07:45:42;17.30;99.90
11894;DHT22;6006;49.696;8.662;2022-09-09T07:48:09;17.30;99.90
11894;DHT22;6006;49.696;8.662;2022-09-09T07:50:37;17.40;99.90
11894;DHT22;6006;49.696;8.662;2022-09-09T07:53:06;17.50;99.90
11894;DHT22;6006;49.696;8.662;2022-09-09T07:55:33;17.70;99.90
11894;DHT22;6006;49.696;8.662;2022-09-09T07:58:00;17.80;99.90
11894;DHT22;6006;49.696;8.662;2022-09-09T08:00:27;17.80;99.90
11894;DHT22;6006;49.696;8.662;2022-09-09T08:02:54;18.00;99.90
11894;DHT22;6006;49.696;8.662;2022-09-09T08:05:20;18.20;99.90
11894;DHT22;6006;49.696;8.662;2022-09-09T08:07:48;18.10;99.90
11894;DHT22;6006;49.696;8.662;2022-09-09T08:10:17;18.20;99.90
11894;DHT22;6006;49.696;8.662;2022-09-09T08:12:44;18.50;99.90
11894;DHT22;6006;49.696;8.662;2022-09-09T08:15:12;18.80;99.90
11894;DHT22;6006;49.696;8.662;2022-09-09T08:17:39;19.10;99.90
11894;DHT22;6006;49.696;8.662;2022-09-09T08:20:06;19.20;89.60
11894;DHT22;6006;49.696;8.662;2022-09-09T08:22:33;19.40;69.60
11894;DHT22;6006;49.696;8.662;2022-09-09T08:25:00;19.40;52.00
11894;DHT22;6006;49.696;8.662;2022-09-09T08:27:29;19.10;83.50
11894;DHT22;6006;49.696;8.662;2022-09-09T08:29:57;19.20;92.50
11894;DHT22;6006;49.696;8.662;2022-09-09T08:32:24;19.10;37.10
11894;DHT22;6006;49.696;8.662;2022-09-09T08:34:51;18.70;41.00
11894;DHT22;6006;49.696;8.662;2022-09-09T08:37:18;18.60;86.90
11894;DHT22;6006;49.696;8.662;2022-09-09T08:39:45;18.80;93.30
11894;DHT22;6006;49.696;8.662;2022-09-09T08:45:39;19.40;23.00
11894;DHT22;6006;49.696;8.662;2022-09-09T08:48:36;19.70;1.00
11894;DHT22;6006;49.696;8.662;2022-09-09T08:51:07;19.40;15.90
11894;DHT22;6006;49.696;8.662;2022-09-09T08:53:39;19.30;38.70
11894;DHT22;6006;49.696;8.662;2022-09-09T08:56:11;18.90;20.20
11894;DHT22;6006;49.696;8.662;2022-09-09T08:58:45;19.10;29.10
11894;DHT22;6006;49.696;8.662;2022-09-09T09:01:49;19.30;9.20
11894;DHT22;6006;49.696;8.662;2022-09-09T09:04:34;19.40;1.00
11894;DHT22;6006;49.696;8.662;2022-09-09T09:07:11;19.50;1.00
11894;DHT22;6006;49.696;8.662;2022-09-09T09:09:49;19.50;11.00
11894;DHT22;6006;49.696;8.662;2022-09-09T09:12:20;20.30;1.00
11894;DHT22;6006;49.696;8.662;2022-09-09T09:14:48;20.10;1.00
11894;DHT22;6006;49.696;8.662;2022-09-09T09:17:18;20.10;1.00
11894;DHT22;6006;49.696;8.662;2022-09-09T09:19:47;20.50;1.00
11894;DHT22;6006;49.696;8.662;2022-09-09T09:22:18;21.60;1.00
11894;DHT22;6006;49.696;8.662;2022-09-09T09:24:51;21.40;1.00
11894;DHT22;6006;49.696;8.662;2022-09-09T09:27:25;20.70;1.00
11894;DHT22;6006;49.696;8.662;2022-09-09T09:29:55;20.90;1.00
11894;DHT22;6006;49.696;8.662;2022-09-09T09:32:27;21.00;1.00
11894;DHT22;6006;49.696;8.662;2022-09-09T09:34:57;20.60;1.00
11894;DHT22;6006;49.696;8.662;2022-09-09T09:37:32;20.40;1.00
11894;DHT22;6006;49.696;8.662;2022-09-09T09:40:08;20.40;1.00
11894;DHT22;6006;49.696;8.662;2022-09-09T09:42:36;20.50;1.00
11894;DHT22;6006;49.696;8.662;2022-09-09T09:45:16;20.40;1.00
11894;DHT22;6006;49.696;8.662;2022-09-09T09:47:58;20.00;1.00
11894;DHT22;6006;49.696;8.662;2022-09-09T09:50:25;19.80;6.20
11894;DHT22;6006;49.696;8.662;2022-09-09T09:52:56;19.90;1.00
11894;DHT22;6006;49.696;8.662;2022-09-09T09:55:24;20.60;1.00
11894;DHT22;6006;49.696;8.662;2022-09-09T09:57:52;21.00;1.00
11894;DHT22;6006;49.696;8.662;2022-09-09T10:00:21;20.60;1.00
11894;DHT22;6006;49.696;8.662;2022-09-09T10:02:50;20.60;1.00
11894;DHT22;6006;49.696;8.662;2022-09-09T10:05:19;20.60;1.00
11894;DHT22;6006;49.696;8.662;2022-09-09T10:07:57;20.40;1.00
11894;DHT22;6006;49.696;8.662;2022-09-09T10:10:34;20.30;1.00
11894;DHT22;6006;49.696;8.662;2022-09-09T10:13:09;20.60;1.00
11894;DHT22;6006;49.696;8.662;2022-09-09T10:15:42;20.20;1.00
11894;DHT22;6006;49.696;8.662;2022-09-09T10:18:26;20.20;1.00
11894;DHT22;6006;49.696;8.662;2022-09-09T10:21:02;20.60;1.00
11894;DHT22;6006;49.696;8.662;2022-09-09T10:23:44;21.00;1.00
11894;DHT22;6006;49.696;8.662;2022-09-09T10:26:23;21.00;99.90
11894;DHT22;6006;49.696;8.662;2022-09-09T10:29:22;21.10;99.90
11894;DHT22;6006;49.696;8.662;2022-09-09T10:32:00;21.00;1.00
11894;DHT22;6006;49.696;8.662;2022-09-09T10:34:45;21.30;99.90
11894;DHT22;6006;49.696;8.662;2022-09-09T10:37:28;20.40;1.00
11894;DHT22;6006;49.696;8.662;2022-09-09T10:40:04;20.60;1.00
11894;DHT22;6006;49.696;8.662;2022-09-09T10:42:35;20.90;99.90
11894;DHT22;6006;49.696;8.662;2022-09-09T10:45:13;20.90;99.90
11894;DHT22;6006;49.696;8.662;2022-09-09T10:48:10;21.50;99.90
11894;DHT22;6006;49.696;8.662;2022-09-09T10:50:49;22.40;1.00
11894;DHT22;6006;49.696;8.662;2022-09-09T10:53:25;23.20;99.90
11894;DHT22;6006;49.696;8.662;2022-09-09T10:56:05;22.80;99.90
11894;DHT22;6006;49.696;8.662;2022-09-09T10:58:38;23.00;99.90
11894;DHT22;6006;49.696;8.662;2022-09-09T11:01:15;23.60;1.00
11894;DHT22;6006;49.696;8.662;2022-09-09T11:03:43;23.50;1.00
11894;DHT22;6006;49.696;8.662;2022-09-09T11:06:19;23.00;1.00
11894;DHT22;6006;49.696;8.662;2022-09-09T11:08:47;23.90;1.00
11894;DHT22;6006;49.696;8.662;2022-09-09T11:11:18;24.50;1.00
11894;DHT22;6006;49.696;8.662;2022-09-09T11:13:52;24.80;1.00
11894;DHT22;6006;49.696;8.662;2022-09-09T11:16:25;25.40;1.00
11894;DHT22;6006;49.696;8.662;2022-09-09T11:18:58;25.60;1.00
11894;DHT22;6006;49.696;8.662;2022-09-09T11:21:32;25.80;99.90
11894;DHT22;6006;49.696;8.662;2022-09-09T11:24:03;24.50;1.00
11894;DHT22;6006;49.696;8.662;2022-09-09T11:26:35;25.30;1.00
11894;DHT22;6006;49.696;8.662;2022-09-09T11:32:10;24.60;1.00
11894;DHT22;6006;49.696;8.662;2022-09-09T11:34:51;24.70;1.00
11894;DHT22;6006;49.696;8.662;2022-09-09T11:37:43;24.90;1.00
11894;DHT22;6006;49.696;8.662;2022-09-09T11:40:19;24.60;1.00
11894;DHT22;6006;49.696;8.662;2022-09-09T11:42:48;24.00;1.00
11894;DHT22;6006;49.696;8.662;2022-09-09T11:45:22;24.50;1.00
11894;DHT22;6006;49.696;8.662;2022-09-09T11:47:52;23.60;1.00
11894;DHT22;6006;49.696;8.662;2022-09-09T11:50:38;23.40;1.00
11894;DHT22;6006;49.696;8.662;2022-09-09T11:53:18;22.70;99.90
11894;DHT22;6006;49.696;8.662;2022-09-09T11:55:59;22.40;99.90
11894;DHT22;6006;49.696;8.662;2022-09-09T11:58:27;22.10;99.90
11894;DHT22;6006;49.696;8.662;2022-09-09T12:00:58;21.80;99.90
11894;DHT22;6006;49.696;8.662;2022-09-09T12:03:35;21.80;99.90
11894;DHT22;6006;49.696;8.662;2022-09-09T12:06:15;21.50;1.00
11894;DHT22;6006;49.696;8.662;2022-09-09T12:08:47;21.40;99.90
11894;DHT22;6006;49.696;8.662;2022-09-09T12:11:24;21.10;1.00
11894;DHT22;6006;49.696;8.662;2022-09-09T12:13:56;21.00;99.90
11894;DHT22;6006;49.696;8.662;2022-09-09T12:16:32;20.60;99.90
11894;DHT22;6006;49.696;8.662;2022-09-09T12:19:14;20.60;99.90
11894;DHT22;6006;49.696;8.662;2022-09-09T12:21:48;20.60;99.90
11894;DHT22;6006;49.696;8.662;2022-09-09T12:24:23;20.70;1.00
11894;DHT22;6006;49.696;8.662;2022-09-09T12:26:58;20.50;99.90
11894;DHT22;6006;49.696;8.662;2022-09-09T12:29:32;20.50;99.90
11894;DHT22;6006;49.696;8.662;2022-09-09T12:32:07;20.50;99.90
11894;DHT22;6006;49.696;8.662;2022-09-09T12:34:39;20.30;99.90
11894;DHT22;6006;49.696;8.662;2022-09-09T12:37:15;20.40;99.90
11894;DHT22;6006;49.696;8.662;2022-09-09T12:39:47;20.20;99.90
11894;DHT22;6006;49.696;8.662;2022-09-09T12:42:17;20.10;1.00
11894;DHT22;6006;49.696;8.662;2022-09-09T12:44:51;20.00;99.90
11894;DHT22;6006;49.696;8.662;2022-09-09T12:47:20;19.90;16.00
11894;DHT22;6006;49.696;8.662;2022-09-09T12:49:49;19.90;1.00
11894;DHT22;6006;49.696;8.662;2022-09-09T12:52:21;19.90;99.90
11894;DHT22;6006;49.696;8.662;2022-09-09T12:54:51;19.90;1.00
11894;DHT22;6006;49.696;8.662;2022-09-09T12:57:20;19.90;24.80
11894;DHT22;6006;49.696;8.662;2022-09-09T12:59:48;20.10;99.90
11894;DHT22;6006;49.696;8.662;2022-09-09T13:02:20;20.40;99.90
11894;DHT22;6006;49.696;8.662;2022-09-09T13:04:48;20.30;1.00
11894;DHT22;6006;49.696;8.662;2022-09-09T13:07:17;20.70;99.90
11894;DHT22;6006;49.696;8.662;2022-09-09T13:09:45;21.00;1.00
11894;DHT22;6006;49.696;8.662;2022-09-09T13:12:17;21.00;99.90
11894;DHT22;6006;49.696;8.662;2022-09-09T13:14:46;22.00;99.90
11894;DHT22;6006;49.696;8.662;2022-09-09T13:17:20;22.50;1.00
11894;DHT22;6006;49.696;8.662;2022-09-09T13:19:48;22.10;1.00
11894;DHT22;6006;49.696;8.662;2022-09-09T13:22:21;22.00;1.00
11894;DHT22;6006;49.696;8.662;2022-09-09T13:25:00;20.80;99.90
11894;DHT22;6006;49.696;8.662;2022-09-09T13:27:32;20.70;99.90
11894;DHT22;6006;49.696;8.662;2022-09-09T13:30:00;20.90;99.90
11894;DHT22;6006;49.696;8.662;2022-09-09T13:32:28;20.70;99.90
11894;DHT22;6006;49.696;8.662;2022-09-09T13:34:58;20.10;1.00
11894;DHT22;6006;49.696;8.662;2022-09-09T13:37:30;20.20;48.60
11894;DHT22;6006;49.696;8.662;2022-09-09T13:39:59;20.10;99.90
11894;DHT22;6006;49.696;8.662;2022-09-09T13:42:27;19.60;99.90
11894;DHT22;6006;49.696;8.662;2022-09-09T13:44:57;18.80;1.00
11894;DHT22;6006;49.696;8.662;2022-09-09T13:47:30;18.30;30.60
11894;DHT22;6006;49.696;8.662;2022-09-09T13:49:57;17.70;31.50
11894;DHT22;6006;49.696;8.662;2022-09-09T13:52:27;17.10;99.90
11894;DHT22;6006;49.696;8.662;2022-09-09T13:54:56;16.90;99.90
11894;DHT22;6006;49.696;8.662;2022-09-09T13:57:25;16.90;99.90
11894;DHT22;6006;49.696;8.662;2022-09-09T13:59:55;16.80;99.90
11894;DHT22;6006;49.696;8.662;2022-09-09T14:02:22;17.00;99.90
11894;DHT22;6006;49.696;8.662;2022-09-09T14:04:49;17.10;99.90
11894;DHT22;6006;49.696;8.662;2022-09-09T14:07:20;17.30;99.90
11894;DHT22;6006;49.696;8.662;2022-09-09T14:09:47;17.80;99.90
11894;DHT22;6006;49.696;8.662;2022-09-09T14:12:16;18.20;99.90
11894;DHT22;6006;49.696;8.662;2022-09-09T14:14:43;18.60;99.90
11894;DHT22;6006;49.696;8.662;2022-09-09T14:17:12;19.10;99.90
11894;DHT22;6006;49.696;8.662;2022-09-09T14:19:39;19.40;95.30
11894;DHT22;6006;49.696;8.662;2022-09-09T14:22:06;20.20;1.00
11894;DHT22;6006;49.696;8.662;2022-09-09T14:24:33;21.20;1.00
11894;DHT22;6006;49.696;8.662;2022-09-09T14:27:00;22.00;99.90
11894;DHT22;6006;49.696;8.662;2022-09-09T14:29:27;22.50;1.00
11894;DHT22;6006;49.696;8.662;2022-09-09T14:31:54;22.40;99.90
11894;DHT22;6006;49.696;8.662;2022-09-09T14:34:22;22.40;1.00
11894;DHT22;6006;49.696;8.662;2022-09-09T14:36:49;21.40;1.00
11894;DHT22;6006;49.696;8.662;2022-09-09T14:39:16;20.70;1.00
11894;DHT22;6006;49.696;8.662;2022-09-09T14:41:43;20.80;1.00
11894;DHT22;6006;49.696;8.662;2022-09-09T14:44:11;20.00;1.00
11894;DHT22;6006;49.696;8.662;2022-09-09T14:46:38;19.40;40.80
11894;DHT22;6006;49.696;8.662;2022-09-09T14:49:05;19.00;99.90
11894;DHT22;6006;49.696;8.662;2022-09-09T14:51:33;19.10;99.90
11894;DHT22;6006;49.696;8.662;2022-09-09T14:54:00;19.40;99.90
11894;DHT22;6006;49.696;8.662;2022-09-09T14:56:29;18.80;99.90
11894;DHT22;6006;49.696;8.662;2022-09-09T14:58:57;18.70;99.90
11894;DHT22;6006;49.696;8.662;2022-09-09T15:01:28;18.40;99.90
11894;DHT22;6006;49.696;8.662;2022-09-09T15:03:57;18.40;99.90
11894;DHT22;6006;49.696;8.662;2022-09-09T15:06:25;18.60;99.90
11894;DHT22;6006;49.696;8.662;2022-09-09T15:08:54;18.70;99.90
11894;DHT22;6006;49.696;8.662;2022-09-09T15:11:23;18.70;99.90
11894;DHT22;6006;49.696;8.662;2022-09-09T15:13:51;18.70;99.90
11894;DHT22;6006;49.696;8.662;2022-09-09T15:16:19;18.50;99.90
11894;DHT22;6006;49.696;8.662;2022-09-09T15:18:49;18.50;99.90
11894;DHT22;6006;49.696;8.662;2022-09-09T15:21:18;18.30;87.50
11894;DHT22;6006;49.696;8.662;2022-09-09T15:23:46;18.50;99.90
11894;DHT22;6006;49.696;8.662;2022-09-09T15:26:14;18.30;99.90
11894;DHT22;6006;49.696;8.662;2022-09-09T15:28:43;18.00;99.90
11894;DHT22;6006;49.696;8.662;2022-09-09T15:31:12;18.00;99.90
11894;DHT22;6006;49.696;8.662;2022-09-09T15:33:41;17.90;99.90
11894;DHT22;6006;49.696;8.662;2022-09-09T15:36:17;17.80;99.90
11894;DHT22;6006;49.696;8.662;2022-09-09T15:38:44;17.60;99.90
11894;DHT22;6006;49.696;8.662;2022-09-09T15:41:11;17.60;99.90
11894;DHT22;6006;49.696;8.662;2022-09-09T15:43:43;17.50;99.90
11894;DHT22;6006;49.696;8.662;2022-09-09T15:46:23;17.40;99.90
11894;DHT22;6006;49.696;8.662;2022-09-09T15:48:53;17.40;99.90
11894;DHT22;6006;49.696;8.662;2022-09-09T15:51:21;17.30;99.90
11894;DHT22;6006;49.696;8.662;2022-09-09T15:53:49;17.00;99.90
11894;DHT22;6006;49.696;8.662;2022-09-09T15:56:19;16.80;99.90
11894;DHT22;6006;49.696;8.662;2022-09-09T15:58:47;16.90;99.90
11894;DHT22;6006;49.696;8.662;2022-09-09T16:01:15;16.90;99.90
11894;DHT22;6006;49.696;8.662;2022-09-09T16:03:42;16.80;99.90
11894;DHT22;6006;49.696;8.662;2022-09-09T16:06:12;16.70;99.90
11894;DHT22;6006;49.696;8.662;2022-09-09T16:08:40;16.70;99.90
11894;DHT22;6006;49.696;8.662;2022-09-09T16:11:09;16.60;99.90
11894;DHT22;6006;49.696;8.662;2022-09-09T16:13:39;16.60;99.90
11894;DHT22;6006;49.696;8.662;2022-09-09T16:16:08;16.70;99.90
11894;DHT22;6006;49.696;8.662;2022-09-09T16:18:36;16.80;99.90
11894;DHT22;6006;49.696;8.662;2022-09-09T16:21:04;16.80;99.90
11894;DHT22;6006;49.696;8.662;2022-09-09T16:23:33;16.90;99.90